sensor_id;sensor_type;location;lat;lon;timestamp;temperature;humidity
67050;DHT22;53955;52.442;13.284;2022-09-13T00:00:32;18.70;57.80
67050;DHT22;53955;52.442;13.284;2022-09-13T00:02:59;18.70;57.60
67050;DHT22;53955;52.442;13.284;2022-09-13T00:05:26;18.50;58.90
67050;DHT22;53955;52.442;13.284;2022-09-13T00:07:53;18.50;58.60
67050;DHT22;53955;52.442;13.284;2022-09-13T00:10:21;18.60;57.80
67050;DHT22;53955;52.442;13.284;2022-09-13T00:12:49;18.60;58.10
67050;DHT22;53955;52.442;13.284;2022-09-13T00:15:15;18.40;58.80
67050;DHT22;53955;52.442;13.284;2022-09-13T00:17:42;18.60;57.50
67050;DHT22;53955;52.442;13.284;2022-09-13T00:20:09;18.70;57.20
67050;DHT22;53955;52.442;13.284;2022-09-13T00:22:36;18.60;57.80
67050;DHT22;53955;52.442;13.284;2022-09-13T00:25:03;18.50;58.60
67050;DHT22;53955;52.442;13.284;2022-09-13T00:27:33;18.40;59.30
67050;DHT22;53955;52.442;13.284;2022-09-13T00:29:59;18.30;59.30
67050;DHT22;53955;52.442;13.284;2022-09-13T00:32:26;18.40;58.40
67050;DHT22;53955;52.442;13.284;2022-09-13T00:34:53;18.30;58.50
67050;DHT22;53955;52.442;13.284;2022-09-13T00:37:19;18.40;58.80
67050;DHT22;53955;52.442;13.284;2022-09-13T00:39:46;18.40;57.90
67050;DHT22;53955;52.442;13.284;2022-09-13T00:42:13;18.40;58.30
67050;DHT22;53955;52.442;13.284;2022-09-13T00:44:52;18.30;59.20
67050;DHT22;53955;52.442;13.284;2022-09-13T00:47:23;18.30;58.20
67050;DHT22;53955;52.442;13.284;2022-09-13T00:49:52;18.40;58.10
67050;DHT22;53955;52.442;13.284;2022-09-13T00:52:23;18.30;58.90
67050;DHT22;53955;52.442;13.284;2022-09-13T00:54:55;18.20;58.80
67050;DHT22;53955;52.442;13.284;2022-09-13T00:57:23;18.20;57.80
67050;DHT22;53955;52.442;13.284;2022-09-13T00:59:58;18.20;58.90
67050;DHT22;53955;52.442;13.284;2022-09-13T01:02:26;18.20;58.30
67050;DHT22;53955;52.442;13.284;2022-09-13T01:04:54;18.20;58.00
67050;DHT22;53955;52.442;13.284;2022-09-13T01:07:21;18.00;60.50
67050;DHT22;53955;52.442;13.284;2022-09-13T01:09:49;18.10;60.40
67050;DHT22;53955;52.442;13.284;2022-09-13T01:12:24;18.10;60.70
67050;DHT22;53955;52.442;13.284;2022-09-13T01:14:56;18.20;59.20
67050;DHT22;53955;52.442;13.284;2022-09-13T01:17:25;18.20;58.40
67050;DHT22;53955;52.442;13.284;2022-09-13T01:19:52;18.20;59.10
67050;DHT22;53955;52.442;13.284;2022-09-13T01:22:45;18.20;58.20
67050;DHT22;53955;52.442;13.284;2022-09-13T01:31:18;18.20;58.40
67050;DHT22;53955;52.442;13.284;2022-09-13T01:33:58;18.10;60.40
67050;DHT22;53955;52.442;13.284;2022-09-13T01:36:49;18.00;60.90
67050;DHT22;53955;52.442;13.284;2022-09-13T01:39:28;17.90;61.20
67050;DHT22;53955;52.442;13.284;2022-09-13T01:42:10;17.90;61.00
67050;DHT22;53955;52.442;13.284;2022-09-13T01:44:51;17.90;61.10
67050;DHT22;53955;52.442;13.284;2022-09-13T01:47:27;17.70;61.50
67050;DHT22;53955;52.442;13.284;2022-09-13T01:50:02;17.70;62.10
67050;DHT22;53955;52.442;13.284;2022-09-13T01:52:40;17.80;60.90
67050;DHT22;53955;52.442;13.284;2022-09-13T01:55:12;17.70;62.50
67050;DHT22;53955;52.442;13.284;2022-09-13T01:57:48;17.50;61.70
67050;DHT22;53955;52.442;13.284;2022-09-13T02:00:17;17.60;62.20
67050;DHT22;53955;52.442;13.284;2022-09-13T02:02:50;17.50;62.20
67050;DHT22;53955;52.442;13.284;2022-09-13T02:05:25;17.60;62.40
67050;DHT22;53955;52.442;13.284;2022-09-13T02:07:57;17.60;63.20
67050;DHT22;53955;52.442;13.284;2022-09-13T02:10:30;17.50;63.10
67050;DHT22;53955;52.442;13.284;2022-09-13T02:13:00;17.50;62.30
67050;DHT22;53955;52.442;13.284;2022-09-13T02:15:33;17.50;63.30
67050;DHT22;53955;52.442;13.284;2022-09-13T02:18:07;17.60;61.40
67050;DHT22;53955;52.442;13.284;2022-09-13T02:20:37;17.80;61.30
67050;DHT22;53955;52.442;13.284;2022-09-13T02:23:09;17.80;61.50
67050;DHT22;53955;52.442;13.284;2022-09-13T02:25:38;17.70;61.50
67050;DHT22;53955;52.442;13.284;2022-09-13T02:28:09;17.60;61.60
67050;DHT22;53955;52.442;13.284;2022-09-13T02:30:40;17.50;61.70
67050;DHT22;53955;52.442;13.284;2022-09-13T02:33:11;17.50;62.30
67050;DHT22;53955;52.442;13.284;2022-09-13T02:35:45;17.40;62.80
67050;DHT22;53955;52.442;13.284;2022-09-13T02:38:16;17.40;63.20
67050;DHT22;53955;52.442;13.284;2022-09-13T02:40:47;17.70;61.50
67050;DHT22;53955;52.442;13.284;2022-09-13T02:43:19;17.60;61.20
67050;DHT22;53955;52.442;13.284;2022-09-13T02:45:52;17.70;61.50
67050;DHT22;53955;52.442;13.284;2022-09-13T02:48:32;17.70;60.40
67050;DHT22;53955;52.442;13.284;2022-09-13T02:51:06;17.60;61.90
67050;DHT22;53955;52.442;13.284;2022-09-13T02:53:38;17.50;61.60
67050;DHT22;53955;52.442;13.284;2022-09-13T02:56:14;17.50;62.50
67050;DHT22;53955;52.442;13.284;2022-09-13T02:58:49;17.60;61.10
67050;DHT22;53955;52.442;13.284;2022-09-13T03:01:16;17.60;61.10
67050;DHT22;53955;52.442;13.284;2022-09-13T03:03:44;17.60;61.80
67050;DHT22;53955;52.442;13.284;2022-09-13T03:06:10;17.60;61.50
67050;DHT22;53955;52.442;13.284;2022-09-13T03:08:37;17.70;60.50
67050;DHT22;53955;52.442;13.284;2022-09-13T03:11:10;17.80;61.20
67050;DHT22;53955;52.442;13.284;2022-09-13T03:13:53;17.60;61.10
67050;DHT22;53955;52.442;13.284;2022-09-13T03:16:34;17.70;61.10
67050;DHT22;53955;52.442;13.284;2022-09-13T03:19:16;17.50;61.70
67050;DHT22;53955;52.442;13.284;2022-09-13T03:21:57;17.40;62.50
67050;DHT22;53955;52.442;13.284;2022-09-13T03:24:32;17.40;62.70
67050;DHT22;53955;52.442;13.284;2022-09-13T03:27:10;17.40;61.60
67050;DHT22;53955;52.442;13.284;2022-09-13T03:29:43;17.40;61.90
67050;DHT22;53955;52.442;13.284;2022-09-13T03:32:19;17.40;62.00
67050;DHT22;53955;52.442;13.284;2022-09-13T03:34:56;18.00;64.40
67050;DHT22;53955;52.442;13.284;2022-09-13T03:37:32;18.50;58.90
67050;DHT22;53955;52.442;13.284;2022-09-13T03:40:04;18.50;58.40
67050;DHT22;53955;52.442;13.284;2022-09-13T03:42:36;18.40;58.50
67050;DHT22;53955;52.442;13.284;2022-09-13T03:45:07;18.20;58.10
67050;DHT22;53955;52.442;13.284;2022-09-13T03:47:35;18.00;60.50
67050;DHT22;53955;52.442;13.284;2022-09-13T03:50:06;17.80;61.90
67050;DHT22;53955;52.442;13.284;2022-09-13T03:52:34;17.50;61.70
67050;DHT22;53955;52.442;13.284;2022-09-13T03:55:01;17.40;62.40
67050;DHT22;53955;52.442;13.284;2022-09-13T03:57:28;17.40;62.90
67050;DHT22;53955;52.442;13.284;2022-09-13T03:59:55;17.40;63.10
67050;DHT22;53955;52.442;13.284;2022-09-13T04:02:24;17.40;62.80
67050;DHT22;53955;52.442;13.284;2022-09-13T04:04:51;17.40;62.00
67050;DHT22;53955;52.442;13.284;2022-09-13T04:07:19;17.40;63.30
67050;DHT22;53955;52.442;13.284;2022-09-13T04:09:46;17.30;62.70
67050;DHT22;53955;52.442;13.284;2022-09-13T04:12:14;17.40;62.80
67050;DHT22;53955;52.442;13.284;2022-09-13T04:14:42;17.40;63.50
67050;DHT22;53955;52.442;13.284;2022-09-13T04:17:09;17.40;62.00
67050;DHT22;53955;52.442;13.284;2022-09-13T04:19:36;17.40;62.10
67050;DHT22;53955;52.442;13.284;2022-09-13T04:22:03;17.20;63.00
67050;DHT22;53955;52.442;13.284;2022-09-13T04:24:31;17.30;62.90
67050;DHT22;53955;52.442;13.284;2022-09-13T04:26:58;17.20;63.20
67050;DHT22;53955;52.442;13.284;2022-09-13T04:29:25;17.20;63.60
67050;DHT22;53955;52.442;13.284;2022-09-13T04:31:53;17.30;63.00
67050;DHT22;53955;52.442;13.284;2022-09-13T04:34:20;17.30;63.20
67050;DHT22;53955;52.442;13.284;2022-09-13T04:36:47;17.30;62.80
67050;DHT22;53955;52.442;13.284;2022-09-13T04:39:14;17.40;62.80
67050;DHT22;53955;52.442;13.284;2022-09-13T04:41:42;17.40;61.90
67050;DHT22;53955;52.442;13.284;2022-09-13T04:44:11;17.30;62.80
67050;DHT22;53955;52.442;13.284;2022-09-13T04:46:38;17.40;63.40
67050;DHT22;53955;52.442;13.284;2022-09-13T04:49:05;17.30;63.40
67050;DHT22;53955;52.442;13.284;2022-09-13T04:51:31;17.30;63.70
67050;DHT22;53955;52.442;13.284;2022-09-13T04:53:58;17.30;63.20
67050;DHT22;53955;52.442;13.284;2022-09-13T04:56:24;17.30;62.70
67050;DHT22;53955;52.442;13.284;2022-09-13T04:58:54;17.40;62.80
67050;DHT22;53955;52.442;13.284;2022-09-13T05:01:21;17.40;62.70
67050;DHT22;53955;52.442;13.284;2022-09-13T05:03:49;17.50;62.50
67050;DHT22;53955;52.442;13.284;2022-09-13T05:06:16;17.60;63.50
67050;DHT22;53955;52.442;13.284;2022-09-13T05:08:44;17.60;62.80
67050;DHT22;53955;52.442;13.284;2022-09-13T05:11:14;17.80;62.20
67050;DHT22;53955;52.442;13.284;2022-09-13T05:13:41;17.70;63.10
67050;DHT22;53955;52.442;13.284;2022-09-13T05:16:09;17.70;63.30
67050;DHT22;53955;52.442;13.284;2022-09-13T05:18:35;17.60;62.80
67050;DHT22;53955;52.442;13.284;2022-09-13T05:21:03;17.80;63.10
67050;DHT22;53955;52.442;13.284;2022-09-13T05:23:31;17.80;62.70
67050;DHT22;53955;52.442;13.284;2022-09-13T05:25:59;17.80;64.00
67050;DHT22;53955;52.442;13.284;2022-09-13T05:28:26;17.90;62.50
67050;DHT22;53955;52.442;13.284;2022-09-13T05:30:54;18.00;62.40
67050;DHT22;53955;52.442;13.284;2022-09-13T05:33:23;18.00;62.10
67050;DHT22;53955;52.442;13.284;2022-09-13T05:35:50;18.00;62.00
67050;DHT22;53955;52.442;13.284;2022-09-13T05:38:17;17.90;61.90
67050;DHT22;53955;52.442;13.284;2022-09-13T05:40:44;17.90;63.10
67050;DHT22;53955;52.442;13.284;2022-09-13T05:43:11;17.80;63.10
67050;DHT22;53955;52.442;13.284;2022-09-13T05:45:37;17.80;64.50
67050;DHT22;53955;52.442;13.284;2022-09-13T05:48:04;17.80;63.90
67050;DHT22;53955;52.442;13.284;2022-09-13T05:50:36;17.80;64.70
67050;DHT22;53955;52.442;13.284;2022-09-13T05:53:03;17.80;65.70
67050;DHT22;53955;52.442;13.284;2022-09-13T05:55:30;17.80;66.40
67050;DHT22;53955;52.442;13.284;2022-09-13T05:57:56;17.80;67.50
67050;DHT22;53955;52.442;13.284;2022-09-13T06:00:23;17.70;68.70
67050;DHT22;53955;52.442;13.284;2022-09-13T06:02:50;17.70;69.70
67050;DHT22;53955;52.442;13.284;2022-09-13T06:05:16;17.70;69.80
67050;DHT22;53955;52.442;13.284;2022-09-13T06:07:44;17.70;69.30
67050;DHT22;53955;52.442;13.284;2022-09-13T06:10:11;17.50;70.40
67050;DHT22;53955;52.442;13.284;2022-09-13T06:12:37;17.70;70.90
67050;DHT22;53955;52.442;13.284;2022-09-13T06:15:05;17.60;70.80
67050;DHT22;53955;52.442;13.284;2022-09-13T06:17:33;17.60;71.00
67050;DHT22;53955;52.442;13.284;2022-09-13T06:20:00;17.70;71.40
67050;DHT22;53955;52.442;13.284;2022-09-13T06:22:26;17.70;71.30
67050;DHT22;53955;52.442;13.284;2022-09-13T06:24:58;17.70;71.10
67050;DHT22;53955;52.442;13.284;2022-09-13T06:27:25;17.40;71.70
67050;DHT22;53955;52.442;13.284;2022-09-13T06:29:52;17.50;71.90
67050;DHT22;53955;52.442;13.284;2022-09-13T06:32:19;17.60;71.70
67050;DHT22;53955;52.442;13.284;2022-09-13T06:34:46;17.60;72.00
67050;DHT22;53955;52.442;13.284;2022-09-13T06:37:12;17.50;71.60
67050;DHT22;53955;52.442;13.284;2022-09-13T06:39:39;17.50;72.30
67050;DHT22;53955;52.442;13.284;2022-09-13T06:42:07;17.70;72.70
67050;DHT22;53955;52.442;13.284;2022-09-13T06:44:34;17.50;72.90
67050;DHT22;53955;52.442;13.284;2022-09-13T06:47:00;17.70;71.50
67050;DHT22;53955;52.442;13.284;2022-09-13T06:49:27;17.80;72.00
67050;DHT22;53955;52.442;13.284;2022-09-13T06:51:55;17.70;71.90
67050;DHT22;53955;52.442;13.284;2022-09-13T06:54:22;17.70;72.60
67050;DHT22;53955;52.442;13.284;2022-09-13T06:56:48;17.80;72.30
67050;DHT22;53955;52.442;13.284;2022-09-13T06:59:16;17.90;72.60
67050;DHT22;53955;52.442;13.284;2022-09-13T07:01:43;18.00;72.10
67050;DHT22;53955;52.442;13.284;2022-09-13T07:04:12;18.00;71.70
67050;DHT22;53955;52.442;13.284;2022-09-13T07:06:40;18.10;72.20
67050;DHT22;53955;52.442;13.284;2022-09-13T07:09:10;18.20;71.80
67050;DHT22;53955;52.442;13.284;2022-09-13T07:11:39;18.20;72.40
67050;DHT22;53955;52.442;13.284;2022-09-13T07:14:06;18.40;71.10
67050;DHT22;53955;52.442;13.284;2022-09-13T07:16:36;18.50;70.10
67050;DHT22;53955;52.442;13.284;2022-09-13T07:19:04;18.50;70.40
67050;DHT22;53955;52.442;13.284;2022-09-13T07:21:32;18.50;69.90
67050;DHT22;53955;52.442;13.284;2022-09-13T07:24:00;18.40;69.70
67050;DHT22;53955;52.442;13.284;2022-09-13T07:26:27;18.40;70.40
67050;DHT22;53955;52.442;13.284;2022-09-13T07:28:56;18.30;70.10
67050;DHT22;53955;52.442;13.284;2022-09-13T07:31:24;18.40;71.10
67050;DHT22;53955;52.442;13.284;2022-09-13T07:33:54;18.40;70.30
67050;DHT22;53955;52.442;13.284;2022-09-13T07:36:21;18.40;70.70
67050;DHT22;53955;52.442;13.284;2022-09-13T07:38:49;18.40;71.40
67050;DHT22;53955;52.442;13.284;2022-09-13T07:41:17;18.50;70.60
67050;DHT22;53955;52.442;13.284;2022-09-13T07:43:44;18.50;70.00
67050;DHT22;53955;52.442;13.284;2022-09-13T07:46:12;18.60;70.90
67050;DHT22;53955;52.442;13.284;2022-09-13T07:48:41;18.50;71.30
67050;DHT22;53955;52.442;13.284;2022-09-13T07:51:10;18.60;72.00
67050;DHT22;53955;52.442;13.284;2022-09-13T07:53:39;18.70;72.20
67050;DHT22;53955;52.442;13.284;2022-09-13T07:56:07;18.70;71.30
67050;DHT22;53955;52.442;13.284;2022-09-13T07:58:36;18.80;70.70
67050;DHT22;53955;52.442;13.284;2022-09-13T08:01:05;18.90;70.10
67050;DHT22;53955;52.442;13.284;2022-09-13T08:03:32;19.10;70.70
67050;DHT22;53955;52.442;13.284;2022-09-13T08:05:59;19.00;69.60
67050;DHT22;53955;52.442;13.284;2022-09-13T08:08:28;19.00;69.40
67050;DHT22;53955;52.442;13.284;2022-09-13T08:10:56;18.90;69.20
67050;DHT22;53955;52.442;13.284;2022-09-13T08:13:23;19.00;69.80
67050;DHT22;53955;52.442;13.284;2022-09-13T08:15:49;18.90;70.40
67050;DHT22;53955;52.442;13.284;2022-09-13T08:18:16;18.90;70.70
67050;DHT22;53955;52.442;13.284;2022-09-13T08:20:43;19.00;70.60
67050;DHT22;53955;52.442;13.284;2022-09-13T08:23:10;19.10;70.60
67050;DHT22;53955;52.442;13.284;2022-09-13T08:25:39;19.00;70.00
67050;DHT22;53955;52.442;13.284;2022-09-13T08:28:06;19.10;70.10
67050;DHT22;53955;52.442;13.284;2022-09-13T08:30:33;19.10;70.30
67050;DHT22;53955;52.442;13.284;2022-09-13T08:33:01;19.20;70.60
67050;DHT22;53955;52.442;13.284;2022-09-13T08:35:28;19.20;70.30
67050;DHT22;53955;52.442;13.284;2022-09-13T08:37:55;19.20;70.60
67050;DHT22;53955;52.442;13.284;2022-09-13T08:40:23;19.40;71.00
67050;DHT22;53955;52.442;13.284;2022-09-13T08:42:57;19.50;70.70
67050;DHT22;53955;52.442;13.284;2022-09-13T08:45:28;19.60;70.40
67050;DHT22;53955;52.442;13.284;2022-09-13T08:47:58;19.80;69.30
67050;DHT22;53955;52.442;13.284;2022-09-13T08:50:29;20.00;68.90
67050;DHT22;53955;52.442;13.284;2022-09-13T08:53:03;20.30;68.20
67050;DHT22;53955;52.442;13.284;2022-09-13T08:55:45;20.50;68.00
67050;DHT22;53955;52.442;13.284;2022-09-13T08:58:34;21.00;65.90
67050;DHT22;53955;52.442;13.284;2022-09-13T09:01:05;21.30;64.00
67050;DHT22;53955;52.442;13.284;2022-09-13T09:03:40;21.40;63.10
67050;DHT22;53955;52.442;13.284;2022-09-13T09:06:11;21.40;64.20
67050;DHT22;53955;52.442;13.284;2022-09-13T09:08:42;21.50;62.80
67050;DHT22;53955;52.442;13.284;2022-09-13T09:11:19;21.70;61.90
67050;DHT22;53955;52.442;13.284;2022-09-13T09:13:51;21.90;61.80
67050;DHT22;53955;52.442;13.284;2022-09-13T09:16:29;22.10;61.50
67050;DHT22;53955;52.442;13.284;2022-09-13T09:19:04;22.40;59.90
67050;DHT22;53955;52.442;13.284;2022-09-13T09:21:32;22.40;59.50
67050;DHT22;53955;52.442;13.284;2022-09-13T09:24:00;22.50;60.70
67050;DHT22;53955;52.442;13.284;2022-09-13T09:26:29;22.60;60.60
67050;DHT22;53955;52.442;13.284;2022-09-13T09:28:59;22.70;59.40
67050;DHT22;53955;52.442;13.284;2022-09-13T09:31:33;22.80;59.40
67050;DHT22;53955;52.442;13.284;2022-09-13T09:34:12;22.80;58.60
67050;DHT22;53955;52.442;13.284;2022-09-13T09:36:44;22.60;58.60
67050;DHT22;53955;52.442;13.284;2022-09-13T09:39:14;22.50;59.20
67050;DHT22;53955;52.442;13.284;2022-09-13T09:41:42;22.40;60.30
67050;DHT22;53955;52.442;13.284;2022-09-13T09:44:19;22.40;61.50
67050;DHT22;53955;52.442;13.284;2022-09-13T09:46:49;22.50;60.50
67050;DHT22;53955;52.442;13.284;2022-09-13T09:49:18;22.60;61.90
67050;DHT22;53955;52.442;13.284;2022-09-13T09:52:06;22.50;61.00
67050;DHT22;53955;52.442;13.284;2022-09-13T09:54:35;22.70;59.90
67050;DHT22;53955;52.442;13.284;2022-09-13T09:57:03;22.70;60.80
67050;DHT22;53955;52.442;13.284;2022-09-13T09:59:33;22.90;59.70
67050;DHT22;53955;52.442;13.284;2022-09-13T10:02:13;23.10;59.10
67050;DHT22;53955;52.442;13.284;2022-09-13T10:04:40;23.40;57.90
67050;DHT22;53955;52.442;13.284;2022-09-13T10:07:10;23.40;57.90
67050;DHT22;53955;52.442;13.284;2022-09-13T10:09:54;23.50;58.30
67050;DHT22;53955;52.442;13.284;2022-09-13T10:12:25;23.50;58.60
67050;DHT22;53955;52.442;13.284;2022-09-13T10:15:06;23.50;57.60
67050;DHT22;53955;52.442;13.284;2022-09-13T10:17:39;23.70;56.20
67050;DHT22;53955;52.442;13.284;2022-09-13T10:20:20;23.80;55.10
67050;DHT22;53955;52.442;13.284;2022-09-13T10:23:16;23.80;54.90
67050;DHT22;53955;52.442;13.284;2022-09-13T10:25:44;23.70;54.10
67050;DHT22;53955;52.442;13.284;2022-09-13T10:28:21;23.60;55.90
67050;DHT22;53955;52.442;13.284;2022-09-13T10:30:53;23.40;56.90
67050;DHT22;53955;52.442;13.284;2022-09-13T10:33:25;23.30;57.20
67050;DHT22;53955;52.442;13.284;2022-09-13T10:35:54;23.20;57.70
67050;DHT22;53955;52.442;13.284;2022-09-13T10:38:26;23.10;57.10
67050;DHT22;53955;52.442;13.284;2022-09-13T10:40:54;23.00;57.50
67050;DHT22;53955;52.442;13.284;2022-09-13T10:43:23;22.90;58.40
67050;DHT22;53955;52.442;13.284;2022-09-13T10:45:51;22.90;58.30
67050;DHT22;53955;52.442;13.284;2022-09-13T10:48:19;22.90;58.10
67050;DHT22;53955;52.442;13.284;2022-09-13T10:51:00;22.90;58.10
67050;DHT22;53955;52.442;13.284;2022-09-13T10:53:33;22.90;58.20
67050;DHT22;53955;52.442;13.284;2022-09-13T10:56:00;23.00;59.00
67050;DHT22;53955;52.442;13.284;2022-09-13T10:58:27;22.80;59.70
67050;DHT22;53955;52.442;13.284;2022-09-13T11:01:21;22.70;60.40
67050;DHT22;53955;52.442;13.284;2022-09-13T11:04:26;22.50;59.30
67050;DHT22;53955;52.442;13.284;2022-09-13T11:07:15;22.40;59.80
67050;DHT22;53955;52.442;13.284;2022-09-13T11:09:46;22.20;61.60
67050;DHT22;53955;52.442;13.284;2022-09-13T11:12:18;22.10;61.90
67050;DHT22;53955;52.442;13.284;2022-09-13T11:14:58;21.90;63.60
67050;DHT22;53955;52.442;13.284;2022-09-13T11:17:52;21.90;65.30
67050;DHT22;53955;52.442;13.284;2022-09-13T11:20:31;21.70;66.60
67050;DHT22;53955;52.442;13.284;2022-09-13T11:23:39;21.60;68.70
67050;DHT22;53955;52.442;13.284;2022-09-13T11:26:34;21.60;69.90
67050;DHT22;53955;52.442;13.284;2022-09-13T11:29:12;21.60;70.50
67050;DHT22;53955;52.442;13.284;2022-09-13T11:31:51;21.60;71.80
67050;DHT22;53955;52.442;13.284;2022-09-13T11:34:36;21.50;72.20
67050;DHT22;53955;52.442;13.284;2022-09-13T11:37:13;21.50;72.30
67050;DHT22;53955;52.442;13.284;2022-09-13T11:39:48;21.50;72.90
67050;DHT22;53955;52.442;13.284;2022-09-13T11:42:25;21.50;73.40
67050;DHT22;53955;52.442;13.284;2022-09-13T11:45:20;21.50;73.40
67050;DHT22;53955;52.442;13.284;2022-09-13T11:47:57;21.50;73.60
67050;DHT22;53955;52.442;13.284;2022-09-13T11:50:33;21.30;73.90
67050;DHT22;53955;52.442;13.284;2022-09-13T11:53:12;21.40;73.80
67050;DHT22;53955;52.442;13.284;2022-09-13T11:55:46;21.30;74.50
67050;DHT22;53955;52.442;13.284;2022-09-13T11:58:16;21.30;73.80
67050;DHT22;53955;52.442;13.284;2022-09-13T12:00:47;21.30;74.10
67050;DHT22;53955;52.442;13.284;2022-09-13T12:03:21;21.20;73.80
67050;DHT22;53955;52.442;13.284;2022-09-13T12:05:54;21.30;74.00
67050;DHT22;53955;52.442;13.284;2022-09-13T12:08:24;21.40;73.90
67050;DHT22;53955;52.442;13.284;2022-09-13T12:10:53;21.40;73.30
67050;DHT22;53955;52.442;13.284;2022-09-13T12:13:25;21.40;74.00
67050;DHT22;53955;52.442;13.284;2022-09-13T12:15:55;21.40;73.60
67050;DHT22;53955;52.442;13.284;2022-09-13T12:18:25;21.40;73.50
67050;DHT22;53955;52.442;13.284;2022-09-13T12:20:57;21.50;73.40
67050;DHT22;53955;52.442;13.284;2022-09-13T12:23:30;21.60;72.80
67050;DHT22;53955;52.442;13.284;2022-09-13T12:25:59;21.60;72.80
67050;DHT22;53955;52.442;13.284;2022-09-13T12:28:33;21.60;72.70
67050;DHT22;53955;52.442;13.284;2022-09-13T12:31:04;21.70;72.50
67050;DHT22;53955;52.442;13.284;2022-09-13T12:33:32;21.60;72.60
67050;DHT22;53955;52.442;13.284;2022-09-13T12:36:31;21.60;72.80
67050;DHT22;53955;52.442;13.284;2022-09-13T12:39:20;21.50;73.30
67050;DHT22;53955;52.442;13.284;2022-09-13T12:42:09;21.40;72.80
67050;DHT22;53955;52.442;13.284;2022-09-13T12:44:55;21.40;72.80
67050;DHT22;53955;52.442;13.284;2022-09-13T12:50:50;21.60;73.70
67050;DHT22;53955;52.442;13.284;2022-09-13T12:56:31;21.90;72.70
67050;DHT22;53955;52.442;13.284;2022-09-13T12:59:20;21.80;72.50
67050;DHT22;53955;52.442;13.284;2022-09-13T13:01:49;21.90;72.80
67050;DHT22;53955;52.442;13.284;2022-09-13T13:04:18;21.80;72.30
67050;DHT22;53955;52.442;13.284;2022-09-13T13:06:51;21.90;72.20
67050;DHT22;53955;52.442;13.284;2022-09-13T13:09:32;21.90;72.00
67050;DHT22;53955;52.442;13.284;2022-09-13T13:12:01;21.90;72.70
67050;DHT22;53955;52.442;13.284;2022-09-13T13:14:47;21.90;71.80
67050;DHT22;53955;52.442;13.284;2022-09-13T13:17:41;22.00;71.90
67050;DHT22;53955;52.442;13.284;2022-09-13T13:23:25;22.10;71.40
67050;DHT22;53955;52.442;13.284;2022-09-13T13:26:10;22.20;71.60
67050;DHT22;53955;52.442;13.284;2022-09-13T13:31:42;22.10;72.10
67050;DHT22;53955;52.442;13.284;2022-09-13T13:37:32;22.10;71.60
67050;DHT22;53955;52.442;13.284;2022-09-13T13:40:22;22.20;72.30
67050;DHT22;53955;52.442;13.284;2022-09-13T13:43:29;22.20;71.90
67050;DHT22;53955;52.442;13.284;2022-09-13T13:46:22;22.40;71.70
67050;DHT22;53955;52.442;13.284;2022-09-13T13:48:49;22.40;71.40
67050;DHT22;53955;52.442;13.284;2022-09-13T13:51:19;22.50;70.70
67050;DHT22;53955;52.442;13.284;2022-09-13T13:53:49;22.50;69.50
67050;DHT22;53955;52.442;13.284;2022-09-13T13:56:20;22.50;69.30
67050;DHT22;53955;52.442;13.284;2022-09-13T13:58:51;22.50;69.40
67050;DHT22;53955;52.442;13.284;2022-09-13T14:01:23;22.50;69.90
67050;DHT22;53955;52.442;13.284;2022-09-13T14:04:23;22.60;69.60
67050;DHT22;53955;52.442;13.284;2022-09-13T14:06:58;22.50;69.90
67050;DHT22;53955;52.442;13.284;2022-09-13T14:09:35;22.50;69.50
67050;DHT22;53955;52.442;13.284;2022-09-13T14:12:16;22.60;69.60
67050;DHT22;53955;52.442;13.284;2022-09-13T14:14:59;22.60;69.70
67050;DHT22;53955;52.442;13.284;2022-09-13T14:17:48;22.70;69.00
67050;DHT22;53955;52.442;13.284;2022-09-13T14:20:17;22.90;69.10
67050;DHT22;53955;52.442;13.284;2022-09-13T14:22:45;22.90;69.20
67050;DHT22;53955;52.442;13.284;2022-09-13T14:25:20;22.90;67.70
67050;DHT22;53955;52.442;13.284;2022-09-13T14:27:48;22.80;68.60
67050;DHT22;53955;52.442;13.284;2022-09-13T14:30:20;22.70;68.50
67050;DHT22;53955;52.442;13.284;2022-09-13T14:32:51;22.60;68.90
67050;DHT22;53955;52.442;13.284;2022-09-13T14:35:25;22.60;68.90
67050;DHT22;53955;52.442;13.284;2022-09-13T14:37:52;22.60;68.80
67050;DHT22;53955;52.442;13.284;2022-09-13T14:40:22;22.60;68.90
67050;DHT22;53955;52.442;13.284;2022-09-13T14:42:52;22.60;69.40
67050;DHT22;53955;52.442;13.284;2022-09-13T14:45:23;22.50;69.50
67050;DHT22;53955;52.442;13.284;2022-09-13T14:47:54;22.50;70.20
67050;DHT22;53955;52.442;13.284;2022-09-13T14:50:24;22.50;70.40
67050;DHT22;53955;52.442;13.284;2022-09-13T14:52:53;22.40;70.50
67050;DHT22;53955;52.442;13.284;2022-09-13T14:55:25;22.50;70.20
67050;DHT22;53955;52.442;13.284;2022-09-13T14:57:55;22.50;70.80
67050;DHT22;53955;52.442;13.284;2022-09-13T15:00:26;22.50;70.60
67050;DHT22;53955;52.442;13.284;2022-09-13T15:02:55;22.60;70.10
67050;DHT22;53955;52.442;13.284;2022-09-13T15:05:25;22.70;69.60
67050;DHT22;53955;52.442;13.284;2022-09-13T15:07:52;22.80;69.20
67050;DHT22;53955;52.442;13.284;2022-09-13T15:10:23;22.70;69.00
67050;DHT22;53955;52.442;13.284;2022-09-13T15:12:52;22.80;69.00
67050;DHT22;53955;52.442;13.284;2022-09-13T15:15:32;22.80;67.90
67050;DHT22;53955;52.442;13.284;2022-09-13T15:18:01;22.90;68.50
67050;DHT22;53955;52.442;13.284;2022-09-13T15:20:30;23.00;67.30
67050;DHT22;53955;52.442;13.284;2022-09-13T15:23:13;23.00;67.40
67050;DHT22;53955;52.442;13.284;2022-09-13T15:25:40;23.10;67.30
67050;DHT22;53955;52.442;13.284;2022-09-13T15:28:20;23.10;67.50
67050;DHT22;53955;52.442;13.284;2022-09-13T15:30:49;23.10;66.70
67050;DHT22;53955;52.442;13.284;2022-09-13T15:33:22;23.20;67.70
67050;DHT22;53955;52.442;13.284;2022-09-13T15:35:49;23.20;67.40
67050;DHT22;53955;52.442;13.284;2022-09-13T15:38:23;23.20;66.90
67050;DHT22;53955;52.442;13.284;2022-09-13T15:41:01;23.20;66.60
67050;DHT22;53955;52.442;13.284;2022-09-13T15:43:28;23.30;66.20
67050;DHT22;53955;52.442;13.284;2022-09-13T15:45:57;23.20;65.50
67050;DHT22;53955;52.442;13.284;2022-09-13T15:48:27;23.20;66.10
67050;DHT22;53955;52.442;13.284;2022-09-13T15:51:08;23.10;66.30
67050;DHT22;53955;52.442;13.284;2022-09-13T15:53:35;23.00;66.30
67050;DHT22;53955;52.442;13.284;2022-09-13T15:56:04;23.00;66.70
67050;DHT22;53955;52.442;13.284;2022-09-13T15:58:32;22.90;66.60
67050;DHT22;53955;52.442;13.284;2022-09-13T16:01:00;22.80;67.40
67050;DHT22;53955;52.442;13.284;2022-09-13T16:03:27;22.80;67.70
67050;DHT22;53955;52.442;13.284;2022-09-13T16:05:53;22.60;67.80